Paul, Alabama
Current Conditions -  °F | °C
As of 9:53 AM on Wednesday 22 Oct 2014 (Local Time) from KGZH Reporting Station
Clear Clear  
Wind Chill: 65°   Ceiling: Unl
Heat Index: 65°   Visibility: 10mi
Dew Point: 49°   Wind: 9mph
Humidity: 56%   Direction: 60°ENE
Pressure: 30.13"   Gusts: NA
Location:  31.32°N, 86.7439°W
Report Text: KGZH 221453Z AUTO 06008KT 10SM CLR 18/09 A3013 RMK AO2 SLP201 T01830094 51014
Loading
Personal Weather Stations






























Interactive Weather Map
Tropical Storm Tracking
New forecast layout! Learn more

10-Day Weather Forecast

Advertisements
Track Severe Weather on mobile